Time;durP1;ratioP1;P1;durP2;ratioP2;P2;SDS_P1;SDS_P2;PMS_P1;PMS_P2;Temp;Humidity;BMP_temperature;BMP_pressure;BME280_temperature;BME280_humidity;BME280_pressure;Samples;Min_cycle;Max_cycle;Signal;HPM_P1;HPM_P2
2023/08/29 00:00:26;;;;;;;5.85;5.30;;;12.10;99.90;;;;;;5080908;28;20036;-88
2023/08/29 00:03:03;;;;;;;7.07;5.47;;;12.20;99.90;;;;;;5064699;28;20034;-87
2023/08/29 00:05:29;;;;;;;8.00;5.38;;;12.20;99.90;;;;;;5067878;28;20064;-88
2023/08/29 00:07:55;;;;;;;5.43;4.78;;;12.20;99.90;;;;;;5065714;28;20434;-87
2023/08/29 00:10:20;;;;;;;7.50;5.32;;;12.20;99.90;;;;;;5085269;28;20052;-87
2023/08/29 00:12:46;;;;;;;6.00;5.15;;;12.20;99.90;;;;;;5067339;28;20126;-88
2023/08/29 00:15:34;;;;;;;5.30;4.80;;;12.30;99.90;;;;;;5077003;28;20450;-87
2023/08/29 00:18:00;;;;;;;8.32;5.50;;;12.30;99.90;;;;;;5079802;28;20551;-87
2023/08/29 00:20:25;;;;;;;7.57;5.53;;;12.30;99.90;;;;;;5084650;28;20115;-87
2023/08/29 00:22:51;;;;;;;7.32;5.18;;;12.20;99.90;;;;;;5083459;28;20024;-87
2023/08/29 00:25:16;;;;;;;6.93;6.03;;;12.20;99.90;;;;;;5064388;28;20024;-88
2023/08/29 00:27:42;;;;;;;6.75;5.35;;;12.20;99.90;;;;;;5087235;28;20030;-85
2023/08/29 00:30:08;;;;;;;7.85;5.60;;;12.20;99.90;;;;;;5078159;28;20032;-88
2023/08/29 00:32:34;;;;;;;8.20;6.13;;;12.30;99.90;;;;;;5070770;28;20042;-86
2023/08/29 00:35:01;;;;;;;8.27;5.13;;;12.30;99.90;;;;;;5067738;28;20413;-88
2023/08/29 00:37:27;;;;;;;8.45;5.47;;;12.30;99.90;;;;;;5066497;28;20036;-87
2023/08/29 00:39:53;;;;;;;7.53;6.10;;;12.30;99.90;;;;;;5061502;28;20039;-87
2023/08/29 00:42:19;;;;;;;13.25;6.00;;;12.30;99.90;;;;;;5084095;28;20051;-86
2023/08/29 00:45:22;;;;;;;7.97;6.10;;;12.30;99.90;;;;;;5079977;28;20467;-87
2023/08/29 00:47:48;;;;;;;7.85;6.90;;;12.30;99.90;;;;;;5066103;28;20028;-88
2023/08/29 00:50:14;;;;;;;11.13;7.13;;;12.30;99.90;;;;;;5081432;28;20028;-87
2023/08/29 00:52:40;;;;;;;9.02;6.30;;;12.20;99.90;;;;;;5071062;28;20039;-88
2023/08/29 00:55:06;;;;;;;7.80;6.47;;;12.20;99.90;;;;;;5063088;28;20074;-86
2023/08/29 00:57:31;;;;;;;7.40;6.10;;;12.10;99.90;;;;;;5063729;28;20036;-88
2023/08/29 00:59:57;;;;;;;9.85;6.53;;;12.20;99.90;;;;;;5081426;28;20036;-87
2023/08/29 01:02:23;;;;;;;10.02;7.50;;;12.10;99.90;;;;;;5066665;28;20081;-87
2023/08/29 01:04:49;;;;;;;12.32;7.35;;;12.10;99.90;;;;;;5065024;28;20110;-87
2023/08/29 01:07:14;;;;;;;9.15;7.25;;;12.10;99.90;;;;;;5085628;28;20475;-87
2023/08/29 01:09:40;;;;;;;13.90;7.90;;;12.10;99.90;;;;;;5084150;28;20027;-87
2023/08/29 01:12:16;;;;;;;12.32;8.05;;;12.10;99.90;;;;;;5080502;28;20026;-87
2023/08/29 01:15:01;;;;;;;9.18;7.72;;;12.10;99.90;;;;;;5069984;28;20029;-87
2023/08/29 01:17:44;;;;;;;10.38;8.63;;;12.10;99.90;;;;;;5065861;28;20110;-86
2023/08/29 01:20:12;;;;;;;49.35;10.77;;;12.10;99.90;;;;;;5072637;28;20039;-87
2023/08/29 01:22:47;;;;;;;12.20;8.68;;;12.10;99.90;;;;;;5068315;28;20507;-87
2023/08/29 01:25:42;;;;;;;14.18;8.15;;;12.10;99.90;;;;;;5068792;28;20024;-88
2023/08/29 01:28:09;;;;;;;14.00;8.38;;;12.10;99.90;;;;;;5054337;28;20383;-88
2023/08/29 01:30:37;;;;;;;11.52;9.50;;;12.10;99.90;;;;;;5082638;28;20039;-88
2023/08/29 01:33:03;;;;;;;10.45;9.10;;;12.10;99.90;;;;;;5063839;28;20115;-86
2023/08/29 01:35:29;;;;;;;14.30;10.30;;;12.00;99.90;;;;;;5083593;28;20036;-86
2023/08/29 01:37:55;;;;;;;14.30;9.15;;;12.00;99.90;;;;;;5066056;28;20046;-88
2023/08/29 01:40:21;;;;;;;11.52;9.77;;;12.00;99.90;;;;;;5076500;28;20027;-87
2023/08/29 01:42:46;;;;;;;14.27;9.70;;;12.00;99.90;;;;;;5067788;28;20041;-87
2023/08/29 01:45:12;;;;;;;12.35;11.00;;;12.00;99.90;;;;;;5060964;28;20456;-86
2023/08/29 01:47:38;;;;;;;15.25;10.13;;;12.00;99.90;;;;;;5079033;28;20055;-86
2023/08/29 01:50:05;;;;;;;10.48;9.38;;;12.00;99.90;;;;;;5061819;28;20370;-86
2023/08/29 01:52:31;;;;;;;14.82;10.85;;;12.00;99.90;;;;;;5070553;28;20045;-87
2023/08/29 01:54:58;;;;;;;15.77;11.15;;;12.00;99.90;;;;;;5079326;28;20501;-86
2023/08/29 01:57:27;;;;;;;13.07;11.02;;;12.00;99.90;;;;;;5059102;28;20624;-87
2023/08/29 01:59:53;;;;;;;12.85;10.73;;;12.00;99.90;;;;;;5061976;28;20478;-86
2023/08/29 02:02:20;;;;;;;13.43;10.77;;;12.00;99.90;;;;;;5083712;28;20493;-88
2023/08/29 02:04:45;;;;;;;19.35;12.18;;;12.00;99.90;;;;;;5063469;28;20111;-87
2023/08/29 02:07:11;;;;;;;17.85;11.52;;;12.00;99.90;;;;;;5061183;28;20020;-86
2023/08/29 02:09:37;;;;;;;14.35;11.80;;;12.00;99.90;;;;;;5081109;28;20679;-87
2023/08/29 02:12:03;;;;;;;16.65;11.85;;;11.90;99.90;;;;;;5077913;28;20016;-87
2023/08/29 02:14:28;;;;;;;20.35;11.45;;;11.90;99.90;;;;;;5082428;28;20102;-87
2023/08/29 02:16:54;;;;;;;15.27;11.65;;;11.90;99.90;;;;;;5078003;28;20039;-87
2023/08/29 02:19:19;;;;;;;18.38;11.73;;;11.90;99.90;;;;;;5058370;28;20032;-87
2023/08/29 02:21:45;;;;;;;17.98;11.30;;;11.90;99.90;;;;;;5067891;28;20024;-87
2023/08/29 02:24:11;;;;;;;14.13;11.57;;;11.90;99.90;;;;;;5092148;28;20039;-87
2023/08/29 02:26:36;;;;;;;17.40;12.50;;;11.80;99.90;;;;;;5086389;28;20518;-86
2023/08/29 02:29:02;;;;;;;14.80;12.07;;;11.80;99.90;;;;;;5078431;28;20020;-88
2023/08/29 02:31:28;;;;;;;15.82;11.80;;;11.80;99.90;;;;;;5063372;28;20027;-87
2023/08/29 02:33:53;;;;;;;13.10;11.27;;;11.80;99.90;;;;;;5061286;28;20032;-86
2023/08/29 02:36:19;;;;;;;14.88;11.40;;;11.80;99.90;;;;;;5065842;28;20028;-86
2023/08/29 02:38:45;;;;;;;13.02;11.38;;;11.80;99.90;;;;;;5057482;28;20479;-86
2023/08/29 02:41:12;;;;;;;17.52;10.82;;;11.80;99.90;;;;;;5068959;28;20107;-86
2023/08/29 02:43:38;;;;;;;16.85;12.27;;;11.80;99.90;;;;;;5064026;28;20471;-87
2023/08/29 02:46:04;;;;;;;12.55;10.10;;;11.80;99.90;;;;;;5063275;28;20031;-87
2023/08/29 02:48:31;;;;;;;13.65;10.65;;;11.80;99.90;;;;;;5065883;28;20024;-87
2023/08/29 02:50:57;;;;;;;14.18;10.60;;;11.80;99.90;;;;;;5079529;28;20039;-88
2023/08/29 02:53:23;;;;;;;17.08;10.90;;;11.80;99.90;;;;;;5058380;28;20039;-87
2023/08/29 02:55:52;;;;;;;12.77;10.65;;;11.80;99.90;;;;;;5081673;28;20394;-85
2023/08/29 02:58:19;;;;;;;16.33;11.30;;;11.80;99.90;;;;;;5076784;28;20052;-88
2023/08/29 03:00:45;;;;;;;15.88;11.48;;;11.80;99.90;;;;;;5085965;28;20441;-87
2023/08/29 03:03:11;;;;;;;13.50;11.30;;;11.70;99.90;;;;;;5061249;28;20028;-86
2023/08/29 03:05:37;;;;;;;13.93;11.38;;;11.80;99.90;;;;;;5064179;28;20361;-87
2023/08/29 03:08:04;;;;;;;13.02;11.18;;;11.80;99.90;;;;;;5062170;28;20024;-87
2023/08/29 03:10:35;;;;;;;13.93;11.38;;;11.80;99.90;;;;;;5066190;28;20024;-87
2023/08/29 03:13:01;;;;;;;12.07;10.80;;;11.80;99.90;;;;;;5060791;28;20044;-88
2023/08/29 03:15:32;;;;;;;13.48;10.30;;;11.80;99.90;;;;;;5073802;28;20032;-87
2023/08/29 03:17:59;;;;;;;13.73;10.38;;;11.70;99.90;;;;;;5063167;28;20109;-88
2023/08/29 03:20:26;;;;;;;19.98;10.23;;;11.70;99.90;;;;;;5061206;28;20043;-88
2023/08/29 03:22:53;;;;;;;16.92;11.07;;;11.70;99.90;;;;;;5082468;28;20024;-88
2023/08/29 03:25:21;;;;;;;17.20;10.50;;;11.70;99.90;;;;;;5062084;28;20020;-87
2023/08/29 03:27:47;;;;;;;14.60;10.75;;;11.70;99.90;;;;;;5066779;28;20391;-86
2023/08/29 03:30:13;;;;;;;18.38;12.27;;;11.70;99.90;;;;;;5068412;28;20024;-88
2023/08/29 03:32:39;;;;;;;16.38;11.50;;;11.70;99.90;;;;;;5072928;28;20088;-88
2023/08/29 03:35:05;;;;;;;19.23;11.75;;;11.70;99.90;;;;;;5086701;28;20701;-87
2023/08/29 03:37:30;;;;;;;17.20;11.63;;;11.60;99.90;;;;;;5082533;28;20119;-87
2023/08/29 03:39:56;;;;;;;15.95;11.98;;;11.60;99.90;;;;;;5080721;28;20078;-86
2023/08/29 03:42:22;;;;;;;14.57;11.68;;;11.60;99.90;;;;;;5066505;28;20039;-87
2023/08/29 03:44:48;;;;;;;23.05;11.13;;;11.60;99.90;;;;;;5065997;28;20032;-87
2023/08/29 03:47:13;;;;;;;15.23;11.35;;;11.50;99.90;;;;;;5067238;28;20380;-86
2023/08/29 03:49:39;;;;;;;17.13;10.70;;;11.60;99.90;;;;;;5068578;28;20628;-87
2023/08/29 03:52:05;;;;;;;14.13;11.40;;;11.70;99.90;;;;;;5084429;28;20047;-87
2023/08/29 03:54:31;;;;;;;14.25;11.13;;;11.60;99.90;;;;;;5065167;28;20031;-86
2023/08/29 03:56:57;;;;;;;12.98;10.40;;;11.70;99.90;;;;;;5070860;28;20072;-86
2023/08/29 03:59:22;;;;;;;15.43;11.38;;;11.70;99.90;;;;;;5066223;28;20039;-86
2023/08/29 04:01:48;;;;;;;17.23;11.10;;;11.60;99.90;;;;;;5080648;28;20063;-86
2023/08/29 04:04:14;;;;;;;15.23;9.98;;;11.60;99.90;;;;;;5068086;28;20028;-87
2023/08/29 04:06:39;;;;;;;15.35;10.02;;;11.60;99.90;;;;;;5064296;28;20028;-86
2023/08/29 04:09:08;;;;;;;12.73;10.50;;;11.70;99.90;;;;;;5070378;28;20039;-85
2023/08/29 04:11:34;;;;;;;12.98;10.63;;;11.70;99.90;;;;;;5065575;28;20471;-86
2023/08/29 04:14:00;;;;;;;12.18;9.57;;;11.70;99.90;;;;;;5063877;28;20039;-87
2023/08/29 04:16:26;;;;;;;11.93;10.23;;;11.70;99.90;;;;;;5084647;28;20046;-87
2023/08/29 04:18:52;;;;;;;13.65;9.98;;;11.70;99.90;;;;;;5066411;28;20669;-86
2023/08/29 04:21:17;;;;;;;15.07;10.52;;;11.70;99.90;;;;;;5064997;28;20479;-87
2023/08/29 04:23:43;;;;;;;15.95;10.93;;;11.70;99.90;;;;;;5063479;28;20090;-86
2023/08/29 04:26:08;;;;;;;14.18;10.57;;;11.70;99.90;;;;;;5068278;28;20027;-86
2023/08/29 04:28:34;;;;;;;13.80;11.30;;;11.60;99.90;;;;;;5065360;28;20040;-87
2023/08/29 04:31:11;;;;;;;13.25;10.43;;;11.60;99.90;;;;;;5070609;28;20115;-86
2023/08/29 04:33:36;;;;;;;12.48;10.43;;;11.60;99.90;;;;;;5059882;28;20071;-86
2023/08/29 04:36:02;;;;;;;13.65;11.10;;;11.60;99.90;;;;;;5063514;28;20456;-86
2023/08/29 04:38:31;;;;;;;13.32;10.68;;;11.60;99.90;;;;;;5063714;28;20029;-86
2023/08/29 04:40:57;;;;;;;12.60;9.73;;;11.60;99.90;;;;;;5076559;28;20058;-86
2023/08/29 04:43:23;;;;;;;13.88;10.63;;;11.50;99.90;;;;;;5059737;28;20067;-87
2023/08/29 04:45:50;;;;;;;15.05;10.40;;;11.60;99.90;;;;;;5068597;28;20047;-85
2023/08/29 04:48:17;;;;;;;15.75;10.75;;;11.50;99.90;;;;;;5062111;28;20024;-87
2023/08/29 04:50:45;;;;;;;18.88;10.52;;;11.60;99.90;;;;;;5070080;28;20028;-87
2023/08/29 04:53:11;;;;;;;21.48;10.90;;;11.60;99.90;;;;;;5064032;28;20115;-86
2023/08/29 04:55:37;;;;;;;14.05;10.68;;;11.60;99.90;;;;;;5065891;28;20031;-87
2023/08/29 04:58:03;;;;;;;28.33;13.10;;;11.60;99.90;;;;;;5063336;28;20108;-87
2023/08/29 05:00:29;;;;;;;20.70;10.10;;;11.60;99.90;;;;;;5085001;28;20046;-87
2023/08/29 05:02:55;;;;;;;15.95;10.48;;;11.60;99.90;;;;;;5063554;28;20038;-86
2023/08/29 05:05:21;;;;;;;14.48;10.25;;;11.70;99.90;;;;;;5069331;28;20039;-86
2023/08/29 05:07:46;;;;;;;14.48;9.85;;;11.60;99.90;;;;;;5065068;28;20025;-86
2023/08/29 05:10:12;;;;;;;13.02;10.50;;;11.70;99.90;;;;;;5063176;28;20019;-87
2023/08/29 05:12:38;;;;;;;12.38;9.98;;;11.70;99.90;;;;;;5065806;28;20024;-87
2023/08/29 05:15:04;;;;;;;11.98;10.30;;;11.70;99.90;;;;;;5082894;28;20012;-87
2023/08/29 05:17:30;;;;;;;13.85;10.35;;;11.70;99.90;;;;;;5059307;28;20086;-87
2023/08/29 05:19:55;;;;;;;14.30;10.23;;;11.80;99.90;;;;;;5068201;28;20463;-86
2023/08/29 05:22:39;;;;;;;12.68;9.52;;;11.80;99.90;;;;;;5077830;28;20061;-86
2023/08/29 05:25:06;;;;;;;13.32;9.82;;;11.80;99.90;;;;;;5063889;28;20026;-85
2023/08/29 05:27:31;;;;;;;13.70;9.80;;;11.90;99.90;;;;;;5079323;28;20417;-86
2023/08/29 05:29:57;;;;;;;11.80;9.77;;;11.90;99.90;;;;;;5080660;28;20020;-86
2023/08/29 05:32:23;;;;;;;13.65;9.52;;;11.90;99.90;;;;;;5064249;28;20028;-86
2023/08/29 05:35:10;;;;;;;12.05;9.65;;;12.00;99.90;;;;;;5066321;28;20027;-88
2023/08/29 05:37:36;;;;;;;13.82;10.50;;;12.00;99.90;;;;;;5081288;28;20433;-86
2023/08/29 05:40:03;;;;;;;15.40;9.40;;;12.00;99.90;;;;;;5062094;28;20028;-85
2023/08/29 05:42:29;;;;;;;15.70;9.10;;;12.10;99.90;;;;;;5066324;28;20032;-86
2023/08/29 05:44:55;;;;;;;15.27;9.18;;;12.20;99.90;;;;;;5058492;28;20040;-87
2023/08/29 05:47:21;;;;;;;14.00;9.00;;;12.20;99.90;;;;;;5069033;28;20028;-86
2023/08/29 05:49:47;;;;;;;10.93;9.20;;;12.30;99.90;;;;;;5078545;28;20162;-86
2023/08/29 05:52:12;;;;;;;11.07;8.85;;;12.40;99.90;;;;;;5064494;28;20020;-87
2023/08/29 05:54:38;;;;;;;13.45;8.52;;;12.50;99.90;;;;;;5076967;28;20024;-86
2023/08/29 05:57:05;;;;;;;9.77;7.93;;;12.60;99.90;;;;;;5087007;28;20020;-87
2023/08/29 05:59:30;;;;;;;13.88;7.82;;;12.60;99.90;;;;;;5057145;28;20459;-86
2023/08/29 06:01:56;;;;;;;9.27;7.57;;;12.70;99.90;;;;;;5078019;28;20107;-87
2023/08/29 06:04:22;;;;;;;9.27;7.88;;;12.80;99.90;;;;;;5074815;28;20028;-87
2023/08/29 06:06:49;;;;;;;11.25;7.38;;;12.90;99.90;;;;;;5060841;28;20074;-85
2023/08/29 06:09:14;;;;;;;10.93;7.50;;;12.90;99.90;;;;;;5075368;28;20035;-88
2023/08/29 06:11:40;;;;;;;9.27;7.18;;;12.90;99.90;;;;;;5059463;28;20407;-87
2023/08/29 06:14:06;;;;;;;13.00;6.65;;;13.10;99.90;;;;;;5077764;28;20028;-87
2023/08/29 06:16:32;;;;;;;8.65;6.15;;;13.10;99.90;;;;;;5080022;28;20038;-88
2023/08/29 06:18:58;;;;;;;7.00;5.90;;;13.30;99.90;;;;;;5069394;28;20028;-88
2023/08/29 06:21:24;;;;;;;10.60;6.55;;;13.40;99.90;;;;;;5081114;28;20027;-87
2023/08/29 06:23:49;;;;;;;8.05;5.88;;;13.40;99.90;;;;;;5061010;28;20123;-87
2023/08/29 06:26:16;;;;;;;9.80;5.85;;;13.50;99.90;;;;;;5072522;28;20032;-87
2023/08/29 06:28:42;;;;;;;14.40;6.32;;;13.60;99.90;;;;;;5074124;28;20032;-88
2023/08/29 06:31:08;;;;;;;8.70;5.95;;;13.60;99.90;;;;;;5059320;28;20399;-87
2023/08/29 06:33:35;;;;;;;8.48;6.13;;;13.80;99.90;;;;;;5076062;28;20101;-85
2023/08/29 06:36:01;;;;;;;6.80;4.90;;;13.90;99.90;;;;;;5060899;28;20024;-87
2023/08/29 06:38:27;;;;;;;8.00;5.22;;;14.00;99.90;;;;;;5077934;28;20047;-87
2023/08/29 06:40:55;;;;;;;6.88;4.60;;;14.20;99.90;;;;;;5058833;28;20016;-88
2023/08/29 06:43:21;;;;;;;9.27;4.75;;;14.30;99.90;;;;;;5071553;28;20064;-89
2023/08/29 06:45:47;;;;;;;7.82;5.28;;;14.40;99.90;;;;;;5069172;28;20035;-86
2023/08/29 06:48:13;;;;;;;12.35;5.32;;;14.40;99.90;;;;;;5079885;28;20387;-87
2023/08/29 06:50:38;;;;;;;4.82;4.43;;;14.50;99.90;;;;;;5061545;28;20471;-87
2023/08/29 06:53:04;;;;;;;7.03;4.78;;;14.60;99.90;;;;;;5078456;28;20089;-87
2023/08/29 06:55:34;;;;;;;6.32;4.63;;;14.70;99.90;;;;;;5055326;28;20131;-88
2023/08/29 06:58:02;;;;;;;11.02;4.63;;;14.80;99.90;;;;;;5056968;28;20070;-87
2023/08/29 07:00:28;;;;;;;7.50;4.85;;;14.90;99.90;;;;;;5072724;28;20039;-87
2023/08/29 07:02:54;;;;;;;8.63;5.20;;;14.90;99.90;;;;;;5057188;28;20111;-88
2023/08/29 07:05:20;;;;;;;9.13;4.97;;;14.90;99.90;;;;;;5078168;28;20089;-87
2023/08/29 07:07:46;;;;;;;6.93;4.07;;;15.10;99.90;;;;;;5064196;28;20468;-87
2023/08/29 07:10:12;;;;;;;5.22;4.30;;;15.20;99.90;;;;;;5076397;28;20036;-87
2023/08/29 07:12:37;;;;;;;8.85;4.78;;;15.40;99.90;;;;;;5076919;28;20024;-87
2023/08/29 07:15:07;;;;;;;8.85;5.28;;;15.40;99.90;;;;;;5058011;28;20420;-87
2023/08/29 07:17:32;;;;;;;6.07;4.68;;;15.40;99.90;;;;;;5061177;28;20375;-88
2023/08/29 07:19:58;;;;;;;5.82;4.68;;;15.30;99.90;;;;;;5061282;28;20027;-87
2023/08/29 07:22:24;;;;;;;12.13;6.18;;;15.30;99.90;;;;;;5077762;28;20798;-88
2023/08/29 07:24:50;;;;;;;9.82;4.55;;;15.30;99.90;;;;;;5061130;28;20028;-88
2023/08/29 07:27:15;;;;;;;7.95;4.18;;;15.50;99.90;;;;;;5061023;28;20024;-87
2023/08/29 07:29:41;;;;;;;4.85;3.78;;;15.70;99.90;;;;;;5060820;28;20435;-88
2023/08/29 07:32:07;;;;;;;5.97;3.83;;;15.80;99.90;;;;;;5077342;28;20024;-87
2023/08/29 07:34:34;;;;;;;9.40;4.60;;;15.70;99.90;;;;;;5094608;28;20036;-87
2023/08/29 07:37:00;;;;;;;6.55;4.00;;;15.60;99.90;;;;;;5076330;28;20210;-87
2023/08/29 07:39:25;;;;;;;7.45;3.63;;;15.60;99.90;;;;;;5058052;28;20048;-87
2023/08/29 07:41:51;;;;;;;6.93;4.00;;;15.70;99.90;;;;;;5065193;28;20023;-88
2023/08/29 07:44:17;;;;;;;14.73;6.35;;;15.80;99.90;;;;;;5063758;28;20032;-87
2023/08/29 07:46:42;;;;;;;8.70;5.60;;;16.10;99.90;;;;;;5061688;28;20042;-88
2023/08/29 07:49:14;;;;;;;14.77;7.93;;;16.00;99.90;;;;;;5065421;28;20020;-87
2023/08/29 07:51:40;;;;;;;6.25;4.43;;;16.00;99.90;;;;;;5079839;28;20484;-87
2023/08/29 07:54:06;;;;;;;10.43;6.05;;;16.10;99.90;;;;;;5101374;28;20027;-87
2023/08/29 07:56:32;;;;;;;7.03;3.95;;;16.00;99.90;;;;;;5077636;28;20024;-88
2023/08/29 07:58:57;;;;;;;6.43;4.20;;;16.00;99.90;;;;;;5061084;28;20036;-87
2023/08/29 08:01:23;;;;;;;8.27;3.30;;;16.20;99.90;;;;;;5078548;28;20111;-88
2023/08/29 08:03:49;;;;;;;11.05;4.68;;;16.20;99.90;;;;;;5077571;28;20048;-88
2023/08/29 08:06:15;;;;;;;7.72;4.50;;;16.10;99.90;;;;;;5086908;28;20031;-88
2023/08/29 08:08:40;;;;;;;6.38;3.47;;;16.20;99.90;;;;;;5081532;28;20372;-87
2023/08/29 08:11:06;;;;;;;8.68;5.00;;;16.30;99.90;;;;;;5063735;28;20042;-86
2023/08/29 08:13:33;;;;;;;5.20;3.63;;;16.40;99.90;;;;;;5079048;28;20035;-87
2023/08/29 08:15:59;;;;;;;7.53;3.33;;;16.60;99.90;;;;;;5061710;28;20111;-87
2023/08/29 08:18:25;;;;;;;6.43;3.67;;;16.80;99.90;;;;;;5061589;28;20115;-88
2023/08/29 08:20:50;;;;;;;6.45;3.70;;;16.70;99.90;;;;;;5060976;28;20158;-88
2023/08/29 08:23:16;;;;;;;17.90;8.82;;;16.90;99.90;;;;;;5063553;28;20035;-87
2023/08/29 08:25:42;;;;;;;10.60;5.55;;;17.00;99.90;;;;;;5067393;28;20074;-88
2023/08/29 08:28:17;;;;;;;5.95;3.92;;;16.90;99.90;;;;;;5064179;28;20043;-87
2023/08/29 08:30:42;;;;;;;8.68;3.85;;;16.80;99.90;;;;;;5082666;28;20467;-87
2023/08/29 08:33:08;;;;;;;6.80;4.20;;;16.80;99.90;;;;;;5067377;28;20082;-87
2023/08/29 08:35:34;;;;;;;7.88;3.45;;;16.80;99.90;;;;;;5070301;28;20028;-87
2023/08/29 08:38:00;;;;;;;9.80;5.15;;;16.60;99.90;;;;;;5071117;28;20056;-87
2023/08/29 08:40:25;;;;;;;6.07;3.28;;;16.40;99.90;;;;;;5081312;28;20069;-87
2023/08/29 08:42:51;;;;;;;8.18;5.13;;;16.50;99.90;;;;;;5066725;28;20028;-87
2023/08/29 08:45:19;;;;;;;7.25;4.35;;;16.50;99.90;;;;;;5062759;28;20035;-89
2023/08/29 08:47:45;;;;;;;6.00;4.13;;;16.70;99.90;;;;;;5083805;28;20109;-87
2023/08/29 08:50:11;;;;;;;7.68;4.70;;;16.60;99.90;;;;;;5064723;28;20055;-86
2023/08/29 08:56:24;;;;;;;13.20;6.50;;;16.60;99.90;;;;;;5087745;28;20071;-89
2023/08/29 08:58:50;;;;;;;7.45;4.85;;;16.70;99.90;;;;;;5067069;28;20060;-86
2023/08/29 09:01:16;;;;;;;10.27;6.47;;;16.70;99.90;;;;;;5080790;28;20569;-87
2023/08/29 09:03:42;;;;;;;6.05;3.28;;;16.60;99.90;;;;;;5062845;28;20028;-87
2023/08/29 09:06:09;;;;;;;3.85;3.10;;;16.70;99.90;;;;;;5083059;28;20130;-87
2023/08/29 09:09:25;;;;;;;18.88;5.90;;;16.50;99.90;;;;;;5063519;28;20395;-87
2023/08/29 09:11:52;;;;;;;5.90;3.70;;;16.60;99.90;;;;;;5097085;28;20107;-87
2023/08/29 09:14:18;;;;;;;13.13;5.38;;;16.70;99.90;;;;;;5064659;28;20035;-88
2023/08/29 09:16:44;;;;;;;8.60;3.83;;;16.80;99.90;;;;;;5063291;28;20035;-87
2023/08/29 09:19:10;;;;;;;10.63;4.10;;;17.00;99.90;;;;;;5065914;28;20028;-87
2023/08/29 09:21:36;;;;;;;7.50;3.00;;;17.20;99.90;;;;;;5068563;28;20024;-85
2023/08/29 09:24:04;;;;;;;5.75;3.38;;;17.40;99.90;;;;;;5067111;28;20035;-86
2023/08/29 09:26:34;;;;;;;5.90;3.15;;;17.50;99.90;;;;;;5067412;28;20027;-87
2023/08/29 09:29:15;;;;;;;6.45;2.63;;;17.40;99.90;;;;;;5060368;28;20028;-88
2023/08/29 09:31:40;;;;;;;7.80;3.03;;;17.60;99.90;;;;;;5084796;28;20039;-86
2023/08/29 09:34:07;;;;;;;4.78;2.53;;;17.80;99.90;;;;;;5064550;28;20415;-87
2023/08/29 09:36:33;;;;;;;8.70;2.38;;;18.00;99.90;;;;;;5061878;28;20036;-87
2023/08/29 09:39:00;;;;;;;3.10;2.00;;;18.30;99.90;;;;;;5066323;28;20020;-87
2023/08/29 09:41:26;;;;;;;3.42;2.40;;;18.70;99.90;;;;;;5081671;28;20040;-88
2023/08/29 09:43:52;;;;;;;3.60;2.83;;;18.70;99.90;;;;;;5057571;28;20032;-89
2023/08/29 09:46:22;;;;;;;2.30;2.05;;;18.80;99.90;;;;;;5058334;28;20036;-87
2023/08/29 09:48:56;;;;;;;8.15;2.00;;;18.90;99.90;;;;;;5089615;28;20031;-88
2023/08/29 09:51:24;;;;;;;7.30;1.98;;;19.10;99.90;;;;;;5081321;28;20610;-88
2023/08/29 09:53:50;;;;;;;3.60;2.25;;;19.20;99.90;;;;;;5062606;28;20028;-88
2023/08/29 09:56:19;;;;;;;5.28;2.28;;;19.20;99.90;;;;;;5077330;28;20497;-88
2023/08/29 09:58:47;;;;;;;4.57;2.03;;;19.60;99.90;;;;;;5091059;28;20031;-88
2023/08/29 10:01:14;;;;;;;4.03;1.92;;;19.80;99.90;;;;;;5083987;28;20092;-87
2023/08/29 10:03:41;;;;;;;2.78;2.13;;;19.90;99.90;;;;;;5050633;28;20040;-86
2023/08/29 10:06:09;;;;;;;2.83;2.00;;;19.60;99.90;;;;;;5057795;28;20036;-88
2023/08/29 10:08:59;;;;;;;10.90;2.17;;;19.40;99.90;;;;;;5061198;28;20118;-87
2023/08/29 10:11:29;;;;;;;2.93;1.47;;;19.40;99.90;;;;;;5079197;28;20743;-87
2023/08/29 10:13:56;;;;;;;2.95;1.70;;;19.30;99.90;;;;;;5084375;28;20115;-87
2023/08/29 10:16:23;;;;;;;4.78;1.80;;;18.90;99.90;;;;;;5066921;28;20038;-87
2023/08/29 10:18:55;;;;;;;7.22;1.90;;;18.70;99.90;;;;;;5076368;28;20115;-87
2023/08/29 10:21:21;;;;;;;1.85;1.52;;;18.40;99.90;;;;;;5066987;28;20028;-87
2023/08/29 10:23:49;;;;;;;7.65;1.98;;;18.10;99.90;;;;;;5060723;28;20047;-87
2023/08/29 10:26:17;;;;;;;4.53;2.40;;;17.80;99.90;;;;;;5069334;28;20387;-88
2023/08/29 10:28:45;;;;;;;3.00;2.20;;;17.40;99.90;;;;;;5080009;28;20042;-87
2023/08/29 10:31:12;;;;;;;5.45;2.55;;;17.10;99.90;;;;;;5066408;28;20027;-88
2023/08/29 10:33:38;;;;;;;6.22;2.13;;;16.90;99.90;;;;;;5062929;28;20032;-88
2023/08/29 10:36:08;;;;;;;7.47;2.42;;;16.90;99.90;;;;;;5085466;28;20081;-88
2023/08/29 10:38:38;;;;;;;3.08;2.15;;;17.00;99.90;;;;;;5067476;28;20039;-88
2023/08/29 10:41:06;;;;;;;3.17;2.20;;;17.30;99.90;;;;;;5066536;28;20020;-88
2023/08/29 10:43:32;;;;;;;5.32;1.85;;;17.40;99.90;;;;;;5084533;28;20122;-87
2023/08/29 10:46:10;;;;;;;3.10;1.60;;;17.50;99.90;;;;;;5079620;28;20483;-87
2023/08/29 10:48:39;;;;;;;6.90;2.20;;;17.50;99.90;;;;;;5087595;28;20115;-88
2023/08/29 10:51:17;;;;;;;7.32;2.83;;;17.40;99.90;;;;;;5067615;28;20021;-88
2023/08/29 10:53:56;;;;;;;7.30;2.70;;;17.30;99.90;;;;;;5072305;28;20024;-87
2023/08/29 10:56:26;;;;;;;29.38;5.50;;;16.90;99.90;;;;;;5067141;28;20129;-86
2023/08/29 10:58:51;;;;;;;13.45;5.00;;;16.30;99.90;;;;;;5089533;28;20098;-86
2023/08/29 11:01:36;;;;;;;4.93;4.40;;;15.70;99.90;;;;;;5084890;28;20052;-86
2023/08/29 11:04:11;;;;;;;7.95;4.57;;;15.10;99.90;;;;;;5075389;28;20463;-87
2023/08/29 11:06:52;;;;;;;11.95;6.05;;;14.70;99.90;;;;;;5083008;28;20044;-86
2023/08/29 11:09:20;;;;;;;7.03;3.83;;;14.60;99.90;;;;;;5086800;28;20144;-85
2023/08/29 11:12:09;;;;;;;7.90;4.63;;;14.50;99.90;;;;;;5070171;28;20070;-89
2023/08/29 11:14:55;;;;;;;17.60;6.15;;;14.40;99.90;;;;;;5071956;28;20032;-85
2023/08/29 11:17:24;;;;;;;7.00;4.57;;;14.40;99.90;;;;;;5082627;28;20024;-86
2023/08/29 11:19:58;;;;;;;6.18;4.20;;;14.40;99.90;;;;;;5070520;28;20034;-86
2023/08/29 11:22:26;;;;;;;5.07;3.80;;;14.40;99.90;;;;;;5066367;28;20059;-86
2023/08/29 11:24:56;;;;;;;10.88;3.70;;;14.70;99.90;;;;;;5062747;28;20028;-87
2023/08/29 11:27:23;;;;;;;3.50;2.35;;;15.30;99.90;;;;;;5086394;28;20031;-87
2023/08/29 11:29:49;;;;;;;3.83;2.13;;;16.00;99.90;;;;;;5064522;28;20507;-86
2023/08/29 11:32:19;;;;;;;4.65;2.30;;;16.50;99.90;;;;;;5070790;28;20463;-87
2023/08/29 11:34:54;;;;;;;3.47;1.70;;;16.80;99.90;;;;;;5082954;28;20032;-87
2023/08/29 11:37:23;;;;;;;4.38;1.95;;;17.40;99.90;;;;;;5084049;28;20043;-87
2023/08/29 11:39:53;;;;;;;4.38;1.85;;;18.10;99.90;;;;;;5081614;28;20110;-87
2023/08/29 11:42:22;;;;;;;3.63;1.80;;;18.90;99.90;;;;;;5102582;28;20364;-87
2023/08/29 11:44:53;;;;;;;2.88;1.67;;;19.20;99.90;;;;;;5066027;28;20502;-87
2023/08/29 11:47:19;;;;;;;5.82;2.00;;;19.70;99.90;;;;;;5064880;28;20024;-87
2023/08/29 11:49:55;;;;;;;3.25;1.83;;;20.00;99.90;;;;;;5066855;28;20047;-86
2023/08/29 11:52:22;;;;;;;6.78;2.33;;;19.90;99.90;;;;;;5086639;28;20029;-86
2023/08/29 11:54:56;;;;;;;4.72;2.55;;;19.80;99.90;;;;;;5082612;28;20060;-86
2023/08/29 11:57:22;;;;;;;4.55;2.60;;;19.50;99.90;;;;;;5066575;28;20510;-87
2023/08/29 11:59:50;;;;;;;6.35;2.80;;;19.20;99.90;;;;;;5081374;28;20038;-86
2023/08/29 12:02:22;;;;;;;4.85;2.38;;;19.20;99.90;;;;;;5088465;28;20032;-86
2023/08/29 12:04:53;;;;;;;5.53;2.60;;;19.20;99.90;;;;;;5099975;28;20036;-85
2023/08/29 12:07:19;;;;;;;3.40;2.45;;;19.50;99.90;;;;;;5077388;28;20024;-86
2023/08/29 12:09:47;;;;;;;4.05;2.30;;;19.50;99.90;;;;;;5085105;28;20043;-86
2023/08/29 12:12:35;;;;;;;2.67;2.38;;;19.90;99.90;;;;;;5064911;28;20023;-85
2023/08/29 12:15:05;;;;;;;7.72;2.30;;;20.30;99.90;;;;;;5038293;28;20119;-86
2023/08/29 12:17:42;;;;;;;3.58;2.15;;;20.30;99.90;;;;;;5091389;28;20028;-86
2023/08/29 12:20:14;;;;;;;4.05;2.08;;;20.30;99.90;;;;;;5068347;28;20028;-86
2023/08/29 12:22:47;;;;;;;4.65;2.20;;;20.10;99.90;;;;;;5082311;28;20024;-86
2023/08/29 12:25:13;;;;;;;5.68;2.83;;;20.00;99.90;;;;;;5081859;28;20043;-85
2023/08/29 12:27:39;;;;;;;2.97;1.80;;;20.00;99.90;;;;;;5077804;28;20028;-85
2023/08/29 12:30:13;;;;;;;3.63;2.38;;;20.10;99.90;;;;;;5060743;28;20027;-85
2023/08/29 12:32:39;;;;;;;4.07;2.50;;;20.00;99.90;;;;;;5067973;28;20033;-85
2023/08/29 12:35:37;;;;;;;2.33;1.73;;;20.00;99.90;;;;;;5078518;28;20036;-85
2023/08/29 12:38:03;;;;;;;2.72;1.65;;;19.80;99.90;;;;;;5083888;28;20051;-86
2023/08/29 12:40:29;;;;;;;4.63;2.22;;;19.60;99.90;;;;;;5068075;28;20055;-85
2023/08/29 12:42:56;;;;;;;3.88;2.08;;;19.30;99.90;;;;;;5082449;28;20035;-85
2023/08/29 12:45:22;;;;;;;3.88;2.20;;;18.90;99.90;;;;;;5085214;28;20099;-86